createdAt,value
2023-04-03T00:00:39.351Z,9.06
2023-04-03T00:01:41.570Z,8.98
2023-04-03T00:02:43.351Z,8.92
2023-04-03T00:03:45.069Z,8.93
2023-04-03T00:04:46.658Z,8.97
2023-04-03T00:05:48.492Z,9.03
2023-04-03T00:06:50.202Z,9.14
2023-04-03T00:07:51.881Z,9.05
2023-04-03T00:08:53.845Z,8.92
2023-04-03T00:09:55.485Z,8.87
2023-04-03T00:10:57.502Z,8.88
2023-04-03T00:11:59.055Z,8.87
2023-04-03T00:13:00.639Z,8.75
2023-04-03T00:14:02.174Z,8.72
2023-04-03T00:15:03.983Z,8.68
2023-04-03T00:16:06.448Z,8.58
2023-04-03T00:17:08.131Z,8.61
2023-04-03T00:18:10.149Z,8.67
2023-04-03T00:19:13.004Z,8.76
2023-04-03T00:20:14.584Z,8.84
2023-04-03T00:21:16.625Z,8.74
2023-04-03T00:22:18.160Z,8.77
2023-04-03T00:23:19.740Z,8.78
2023-04-03T00:24:21.286Z,8.77
2023-04-03T00:25:23.142Z,8.82
2023-04-03T00:26:24.688Z,8.83
2023-04-03T00:27:26.244Z,8.83
2023-04-03T00:28:27.920Z,8.87
2023-04-03T00:29:29.463Z,8.92
2023-04-03T00:30:31.541Z,8.98
2023-04-03T00:31:33.224Z,9.02
2023-04-03T00:32:35.347Z,8.99
2023-04-03T00:33:36.883Z,8.92
2023-04-03T00:34:38.443Z,8.89
2023-04-03T00:35:40.519Z,8.90
2023-04-03T00:36:42.305Z,8.96
2023-04-03T00:37:44.249Z,9.02
2023-04-03T00:38:46.011Z,9.07
2023-04-03T00:39:47.585Z,9.13
2023-04-03T00:40:50.499Z,9.13
2023-04-03T00:41:52.190Z,9.17
2023-04-03T00:42:58.612Z,9.23
2023-04-03T00:44:00.253Z,9.17
2023-04-03T00:45:01.884Z,8.94
2023-04-03T00:46:04.017Z,8.75
2023-04-03T00:47:09.504Z,8.61
2023-04-03T00:48:14.794Z,8.45
2023-04-03T00:49:16.408Z,8.27
2023-04-03T00:50:18.777Z,8.19
2023-04-03T00:51:27.810Z,8.13
2023-04-03T00:52:31.747Z,8.09
2023-04-03T00:53:39.826Z,7.95
2023-04-03T00:54:43.104Z,7.84
2023-04-03T00:55:47.445Z,7.77
2023-04-03T00:56:50.833Z,7.79
2023-04-03T00:57:53.432Z,7.79
2023-04-03T00:59:07.089Z,7.77
2023-04-03T01:00:12.551Z,7.69
2023-04-03T01:01:19.555Z,7.62
2023-04-03T01:02:21.288Z,7.54
2023-04-03T01:03:23.204Z,7.46
2023-04-03T01:04:32.238Z,7.55
2023-04-03T01:05:34.039Z,7.64
2023-04-03T01:06:38.172Z,7.73
2023-04-03T01:07:40.772Z,7.85
2023-04-03T01:08:42.848Z,7.98
2023-04-03T01:09:47.849Z,8.10
2023-04-03T01:10:49.417Z,8.26
2023-04-03T01:11:51.148Z,8.36
2023-04-03T01:12:53.381Z,8.42
2023-04-03T01:13:55.421Z,8.47
2023-04-03T01:15:02.865Z,8.52
2023-04-03T01:16:06.456Z,8.51
2023-04-03T01:17:46.684Z,8.45
2023-04-03T01:18:48.424Z,8.44
2023-04-03T01:20:12.036Z,8.52
2023-04-03T01:21:57.084Z,8.66
2023-04-03T01:23:10.988Z,8.74
2023-04-03T01:24:23.760Z,8.72
2023-04-03T01:25:25.758Z,8.73
2023-04-03T01:26:29.313Z,8.76
2023-04-03T01:27:30.986Z,8.75
2023-04-03T01:28:36.593Z,8.76
2023-04-03T01:29:38.752Z,8.78
2023-04-03T01:30:51.744Z,8.80
2023-04-03T01:31:56.462Z,8.80
2023-04-03T01:32:58.484Z,8.79
2023-04-03T01:34:00.368Z,8.80
2023-04-03T01:35:01.973Z,8.83
2023-04-03T01:36:04.288Z,8.82
2023-04-03T01:37:06.050Z,8.82
2023-04-03T01:38:07.966Z,8.79
2023-04-03T01:39:09.755Z,8.75
2023-04-03T01:40:11.706Z,8.57
2023-04-03T01:41:13.403Z,8.43
2023-04-03T01:42:14.969Z,8.21
2023-04-03T01:43:16.493Z,7.99
2023-04-03T01:44:18.184Z,8.01
2023-04-03T01:45:19.748Z,7.99
2023-04-03T01:46:21.657Z,7.97
2023-04-03T01:47:23.713Z,7.90
2023-04-03T01:48:25.353Z,7.92
2023-04-03T01:49:26.995Z,7.94
2023-04-03T01:50:28.537Z,7.87
2023-04-03T01:51:30.475Z,7.79
2023-04-03T01:52:32.009Z,7.68
2023-04-03T01:53:33.734Z,7.52
2023-04-03T01:54:35.269Z,7.41
2023-04-03T01:55:36.826Z,7.33
2023-04-03T01:56:40.145Z,7.26
2023-04-03T01:57:41.812Z,7.33
2023-04-03T01:58:43.365Z,7.29
2023-04-03T01:59:44.966Z,7.23
2023-04-03T02:00:46.758Z,7.21
2023-04-03T02:01:48.398Z,7.29
2023-04-03T02:02:49.988Z,7.40
2023-04-03T02:03:51.847Z,7.45
2023-04-03T02:04:53.420Z,7.46
2023-04-03T02:05:55.000Z,7.49
2023-04-03T02:06:56.635Z,7.35
2023-04-03T02:07:58.135Z,7.17
2023-04-03T02:08:59.658Z,7.11
2023-04-03T02:10:01.266Z,7.07
2023-04-03T02:11:02.785Z,7.03
2023-04-03T02:12:04.429Z,7.03
2023-04-03T02:13:06.445Z,6.99
2023-04-03T02:14:08.134Z,7.00
2023-04-03T02:15:10.272Z,7.01
2023-04-03T02:16:12.496Z,7.06
2023-04-03T02:17:14.178Z,7.16
2023-04-03T02:18:16.242Z,7.24
2023-04-03T02:19:17.769Z,7.25
2023-04-03T02:20:19.726Z,7.25
2023-04-03T02:21:21.569Z,7.18
2023-04-03T02:22:23.112Z,7.20
2023-04-03T02:23:24.623Z,7.24
2023-04-03T02:24:26.274Z,7.28
2023-04-03T02:25:28.254Z,7.34
2023-04-03T02:26:29.769Z,7.33
2023-04-03T02:27:32.745Z,7.24
2023-04-03T02:28:35.316Z,7.13
2023-04-03T02:29:36.964Z,7.14
2023-04-03T02:30:38.833Z,7.21
2023-04-03T02:31:40.542Z,7.31
2023-04-03T02:32:43.434Z,7.41
2023-04-03T02:33:45.118Z,7.53
2023-04-03T02:34:46.633Z,7.62
2023-04-03T02:35:54.180Z,7.71
2023-04-03T02:36:55.883Z,7.80
2023-04-03T02:37:57.632Z,7.84
2023-04-03T02:38:59.226Z,7.87
2023-04-03T02:40:00.955Z,7.84
2023-04-03T02:41:08.925Z,7.84
2023-04-03T02:42:10.837Z,7.91
2023-04-03T02:43:12.408Z,7.99
2023-04-03T02:44:14.202Z,7.92
2023-04-03T02:45:15.975Z,7.76
2023-04-03T02:46:17.552Z,7.59
2023-04-03T02:47:19.131Z,7.64
2023-04-03T02:48:20.689Z,7.68
2023-04-03T02:49:22.466Z,7.72
2023-04-03T02:50:23.970Z,7.67
2023-04-03T02:51:25.867Z,7.49
2023-04-03T02:52:27.402Z,7.24
2023-04-03T02:53:28.973Z,7.15
2023-04-03T02:54:31.614Z,7.20
2023-04-03T02:55:33.252Z,7.23
2023-04-03T02:56:35.351Z,7.28
2023-04-03T02:57:36.895Z,7.31
2023-04-03T02:58:38.500Z,7.36
2023-04-03T02:59:42.961Z,7.41
2023-04-03T03:00:44.533Z,7.48
2023-04-03T03:01:46.374Z,7.57
2023-04-03T03:02:50.259Z,7.70
2023-04-03T03:03:51.826Z,7.84
2023-04-03T03:04:53.418Z,7.95
2023-04-03T03:06:10.691Z,8.02
2023-04-03T03:07:12.256Z,8.08
2023-04-03T03:08:13.736Z,8.14
2023-04-03T03:09:15.728Z,8.20
2023-04-03T03:10:17.554Z,8.23
2023-04-03T03:11:19.412Z,8.24
2023-04-03T03:12:22.834Z,8.23
2023-04-03T03:13:25.588Z,8.21
2023-04-03T03:14:27.168Z,8.24
2023-04-03T03:15:28.722Z,8.23
2023-04-03T03:16:30.525Z,8.16
2023-04-03T03:17:32.139Z,8.07
2023-04-03T03:18:34.040Z,7.80
2023-04-03T03:19:35.754Z,7.73
2023-04-03T03:20:37.558Z,7.69
2023-04-03T03:21:39.504Z,7.54
2023-04-03T03:22:41.048Z,7.58
2023-04-03T03:23:42.549Z,7.65
2023-04-03T03:24:44.120Z,7.69
2023-04-03T03:25:45.989Z,7.79
2023-04-03T03:26:47.542Z,7.84
2023-04-03T03:27:49.073Z,7.83
2023-04-03T03:28:50.801Z,7.85
2023-04-03T03:29:52.307Z,7.85
2023-04-03T03:30:54.074Z,7.88
2023-04-03T03:31:55.756Z,7.88
2023-04-03T03:32:57.426Z,7.87
2023-04-03T03:33:58.948Z,7.86
2023-04-03T03:35:00.765Z,7.83
2023-04-03T03:36:02.528Z,7.88
2023-04-03T03:37:04.200Z,7.92
2023-04-03T03:38:05.716Z,7.96
2023-04-03T03:39:07.358Z,8.02
2023-04-03T03:40:09.690Z,7.90
2023-04-03T03:41:11.321Z,7.86
2023-04-03T03:42:12.971Z,7.85
2023-04-03T03:43:14.505Z,7.85
2023-04-03T03:44:16.318Z,7.90
2023-04-03T03:45:17.912Z,7.91
2023-04-03T03:46:19.482Z,7.80
2023-04-03T03:47:21.267Z,7.75
2023-04-03T03:48:24.527Z,7.78
2023-04-03T03:49:26.431Z,7.81
2023-04-03T03:50:28.056Z,7.75
2023-04-03T03:51:29.570Z,7.50
2023-04-03T03:52:31.273Z,7.39
2023-04-03T03:53:32.825Z,7.41
2023-04-03T03:54:34.356Z,7.34
2023-04-03T03:55:36.331Z,7.32
2023-04-03T03:56:38.101Z,7.22
2023-04-03T03:57:39.690Z,7.24
2023-04-03T03:58:41.214Z,7.27
2023-04-03T03:59:42.948Z,7.25
2023-04-03T04:00:44.651Z,7.28
2023-04-03T04:01:46.244Z,7.25
2023-04-03T04:02:48.039Z,7.26
2023-04-03T04:03:49.945Z,7.28
2023-04-03T04:04:51.750Z,7.33
2023-04-03T04:05:53.367Z,7.35
2023-04-03T04:06:55.106Z,7.28
2023-04-03T04:07:56.692Z,7.22
2023-04-03T04:08:58.264Z,7.12
2023-04-03T04:09:59.844Z,7.10
2023-04-03T04:11:01.478Z,7.04
2023-04-03T04:12:02.986Z,6.92
2023-04-03T04:13:04.727Z,6.89
2023-04-03T04:14:06.651Z,6.83
2023-04-03T04:15:08.800Z,6.85
2023-04-03T04:16:10.913Z,6.89
2023-04-03T04:17:12.443Z,6.88
2023-04-03T04:18:13.980Z,6.94
2023-04-03T04:19:15.858Z,6.91
2023-04-03T04:20:17.456Z,6.84
2023-04-03T04:21:19.032Z,6.84
2023-04-03T04:22:20.775Z,6.77
2023-04-03T04:23:22.340Z,6.71
2023-04-03T04:24:23.906Z,6.55
2023-04-03T04:25:25.484Z,6.59
2023-04-03T04:26:27.205Z,6.50
2023-04-03T04:27:28.884Z,6.39
2023-04-03T04:28:30.463Z,6.24
2023-04-03T04:29:36.611Z,6.18
2023-04-03T04:30:38.377Z,6.15
2023-04-03T04:31:39.950Z,6.00
2023-04-03T04:32:41.856Z,5.94
2023-04-03T04:33:43.441Z,5.92
2023-04-03T04:34:44.991Z,5.93
2023-04-03T04:35:48.957Z,6.00
2023-04-03T04:36:50.674Z,6.09
2023-04-03T04:37:52.459Z,6.22
2023-04-03T04:38:54.105Z,6.38
2023-04-03T04:39:55.699Z,6.59
2023-04-03T04:40:57.219Z,6.72
2023-04-03T04:41:58.789Z,6.81
2023-04-03T04:43:00.429Z,6.91
2023-04-03T04:44:02.016Z,7.00
2023-04-03T04:45:03.885Z,7.09
2023-04-03T04:46:07.834Z,7.15
2023-04-03T04:47:09.474Z,7.21
2023-04-03T04:48:11.129Z,7.28
2023-04-03T04:49:12.839Z,7.31
2023-04-03T04:50:14.511Z,7.21
2023-04-03T04:51:16.603Z,7.01
2023-04-03T04:52:18.147Z,7.02
2023-04-03T04:53:19.704Z,6.99
2023-04-03T04:54:21.466Z,7.04
2023-04-03T04:55:23.036Z,7.08
2023-04-03T04:56:24.567Z,7.22
2023-04-03T04:57:26.287Z,7.35
2023-04-03T04:58:27.954Z,7.35
2023-04-03T04:59:29.503Z,7.30
2023-04-03T05:00:31.126Z,7.34
2023-04-03T05:01:32.676Z,7.43
2023-04-03T05:02:34.346Z,7.42
2023-04-03T05:03:35.970Z,7.49
2023-04-03T05:04:37.530Z,7.46
2023-04-03T05:05:39.716Z,7.42
2023-04-03T05:06:41.898Z,7.42
2023-04-03T05:07:43.426Z,7.45
2023-04-03T05:08:44.984Z,7.37
2023-04-03T05:09:46.544Z,7.39
2023-04-03T05:10:48.514Z,7.33
2023-04-03T05:11:50.066Z,7.29
2023-04-03T05:12:51.708Z,7.29
2023-04-03T05:13:53.795Z,7.16
2023-04-03T05:14:55.411Z,7.11
2023-04-03T05:15:56.968Z,7.06
2023-04-03T05:16:59.131Z,7.01
2023-04-03T05:18:00.748Z,6.88
2023-04-03T05:19:02.327Z,6.79
2023-04-03T05:20:05.973Z,6.74
2023-04-03T05:21:07.479Z,6.67
2023-04-03T05:22:09.054Z,6.66
2023-04-03T05:23:11.777Z,6.67
2023-04-03T05:24:13.437Z,6.66
2023-04-03T05:25:15.009Z,6.61
2023-04-03T05:26:17.751Z,6.61
2023-04-03T05:27:19.247Z,6.66
2023-04-03T05:28:20.830Z,6.71
2023-04-03T05:29:22.669Z,6.68
2023-04-03T05:30:24.235Z,6.70
2023-04-03T05:31:25.985Z,6.77
2023-04-03T05:32:28.622Z,6.91
2023-04-03T05:33:30.380Z,7.03
2023-04-03T05:34:31.896Z,7.09
2023-04-03T05:35:33.503Z,7.14
2023-04-03T05:36:35.322Z,7.28
2023-04-03T05:37:37.644Z,7.37
2023-04-03T05:38:40.669Z,7.43
2023-04-03T05:39:42.514Z,7.50
2023-04-03T05:40:44.049Z,7.55
2023-04-03T05:41:45.771Z,7.58
2023-04-03T05:42:47.381Z,7.66
2023-04-03T05:43:49.044Z,7.72
2023-04-03T05:44:51.203Z,7.76
2023-04-03T05:45:53.681Z,7.87
2023-04-03T05:46:55.562Z,7.95
2023-04-03T05:47:57.162Z,8.05
2023-04-03T05:48:58.770Z,8.11
2023-04-03T05:50:00.348Z,8.13
2023-04-03T05:51:01.859Z,7.96
2023-04-03T05:52:03.493Z,7.71
2023-04-03T05:53:05.205Z,7.80
2023-04-03T05:54:15.120Z,7.93
2023-04-03T05:55:16.960Z,8.02
2023-04-03T05:56:18.514Z,7.87
2023-04-03T05:57:20.651Z,7.67
2023-04-03T05:58:22.249Z,7.44
2023-04-03T05:59:23.768Z,7.36
2023-04-03T06:00:25.762Z,7.28
2023-04-03T06:01:27.472Z,7.15
2023-04-03T06:02:29.096Z,6.94
2023-04-03T06:03:31.198Z,6.90
2023-04-03T06:04:32.878Z,6.90
2023-04-03T06:05:34.453Z,6.96
2023-04-03T06:06:54.116Z,6.99
2023-04-03T06:07:56.107Z,7.01
2023-04-03T06:08:57.746Z,7.06
2023-04-03T06:09:59.336Z,7.16
2023-04-03T06:11:00.956Z,7.23
2023-04-03T06:12:02.995Z,7.27
2023-04-03T06:13:04.628Z,7.27
2023-04-03T06:14:06.137Z,7.26
2023-04-03T06:15:09.242Z,7.27
2023-04-03T06:16:16.382Z,7.39
2023-04-03T06:17:19.560Z,7.52
2023-04-03T06:18:21.592Z,7.28
2023-04-03T06:19:23.342Z,7.29
2023-04-03T06:20:25.147Z,7.29
2023-04-03T06:21:27.669Z,7.31
2023-04-03T06:22:30.918Z,7.40
2023-04-03T06:23:33.776Z,7.36
2023-04-03T06:24:36.521Z,7.42
2023-04-03T06:25:38.234Z,7.54
2023-04-03T06:26:39.791Z,7.62
2023-04-03T06:27:41.538Z,7.67
2023-04-03T06:28:43.090Z,7.79
2023-04-03T06:29:46.273Z,7.89
2023-04-03T06:30:47.883Z,7.93
2023-04-03T06:31:50.281Z,7.91
2023-04-03T06:32:52.114Z,7.83
2023-04-03T06:33:53.682Z,7.82
2023-04-03T06:34:55.482Z,7.96
2023-04-03T06:35:59.120Z,8.10
2023-04-03T06:37:01.385Z,8.25
2023-04-03T06:38:05.508Z,8.36
2023-04-03T06:39:08.018Z,8.44
2023-04-03T06:40:20.873Z,8.53
2023-04-03T06:41:22.448Z,8.61
2023-04-03T06:42:24.829Z,8.67
2023-04-03T06:43:27.095Z,8.74
2023-04-03T06:44:28.672Z,8.85
2023-04-03T06:45:30.199Z,8.93
2023-04-03T06:46:31.841Z,8.99
2023-04-03T06:47:33.461Z,9.06
2023-04-03T06:48:35.043Z,9.12
2023-04-03T06:49:38.062Z,9.19
2023-04-03T06:50:40.110Z,9.23
2023-04-03T06:51:41.687Z,9.18
2023-04-03T06:52:43.489Z,9.25
2023-04-03T06:53:45.599Z,9.35
2023-04-03T06:54:48.277Z,9.44
2023-04-03T06:55:49.815Z,9.49
2023-04-03T06:56:52.101Z,9.54
2023-04-03T06:57:53.675Z,9.54
2023-04-03T06:58:58.530Z,9.55
2023-04-03T07:00:00.153Z,9.60
2023-04-03T07:01:01.997Z,9.67
2023-04-03T07:02:04.047Z,9.71
2023-04-03T07:03:05.877Z,9.58
2023-04-03T07:04:08.665Z,9.48
2023-04-03T07:05:10.640Z,9.54
2023-04-03T07:06:13.932Z,9.67
2023-04-03T07:07:15.969Z,9.74
2023-04-03T07:08:17.570Z,9.75
2023-04-03T07:09:19.539Z,9.77
2023-04-03T07:10:21.558Z,9.59
2023-04-03T07:11:23.701Z,9.44
2023-04-03T07:12:25.280Z,9.26
2023-04-03T07:13:27.531Z,9.31
2023-04-03T07:14:29.076Z,9.22
2023-04-03T07:15:31.170Z,9.08
2023-04-03T07:16:33.073Z,9.02
2023-04-03T07:17:34.815Z,9.03
2023-04-03T07:18:36.525Z,8.98
2023-04-03T07:19:38.083Z,8.91
2023-04-03T07:20:40.177Z,8.91
2023-04-03T07:21:42.973Z,8.90
2023-04-03T07:22:44.576Z,9.01
2023-04-03T07:23:46.236Z,9.01
2023-04-03T07:24:47.758Z,9.08
2023-04-03T07:25:51.156Z,9.19
2023-04-03T07:26:55.693Z,9.36
2023-04-03T07:27:57.371Z,9.32
2023-04-03T07:28:58.915Z,9.22
2023-04-03T07:30:00.446Z,9.06
2023-04-03T07:31:07.268Z,8.88
2023-04-03T07:32:08.820Z,8.93
2023-04-03T07:33:10.394Z,9.08
2023-04-03T07:34:12.297Z,9.22
2023-04-03T07:35:14.101Z,9.20
2023-04-03T07:36:19.214Z,9.02
2023-04-03T07:37:21.538Z,8.96
2023-04-03T07:38:23.520Z,9.06
2023-04-03T07:39:25.313Z,9.13
2023-04-03T07:40:26.870Z,9.25
2023-04-03T07:41:29.627Z,9.39
2023-04-03T07:42:31.451Z,9.39
2023-04-03T07:43:33.894Z,9.48
2023-04-03T07:44:36.462Z,9.55
2023-04-03T07:45:38.282Z,9.69
2023-04-03T07:46:40.145Z,9.83
2023-04-03T07:47:41.880Z,9.95
2023-04-03T07:48:43.584Z,10.05
2023-04-03T07:49:45.497Z,10.08
2023-04-03T07:50:47.322Z,10.17
2023-04-03T07:51:49.588Z,10.26
2023-04-03T07:52:51.849Z,10.39
2023-04-03T07:53:53.524Z,10.35
2023-04-03T07:54:55.063Z,10.12
2023-04-03T07:55:58.220Z,9.96
2023-04-03T07:56:59.879Z,10.05
2023-04-03T07:58:01.456Z,10.20
2023-04-03T07:59:03.421Z,10.34
2023-04-03T08:00:06.390Z,10.38
2023-04-03T08:01:08.283Z,10.23
2023-04-03T08:02:13.674Z,10.14
2023-04-03T08:03:17.660Z,10.21
2023-04-03T08:04:19.517Z,10.32
2023-04-03T08:05:22.350Z,10.44
2023-04-03T08:06:37.468Z,10.39
2023-04-03T08:07:44.211Z,10.23
2023-04-03T08:08:46.767Z,10.01
2023-04-03T08:09:48.317Z,10.02
2023-04-03T08:10:51.786Z,10.06
2023-04-03T08:11:54.478Z,10.19
2023-04-03T08:12:56.030Z,10.25
2023-04-03T08:13:58.148Z,10.06
2023-04-03T08:15:01.632Z,9.93
2023-04-03T08:16:16.900Z,9.94
2023-04-03T08:17:18.480Z,9.97
2023-04-03T08:18:22.714Z,10.04
2023-04-03T08:19:26.605Z,10.00
2023-04-03T08:20:29.169Z,10.07
2023-04-03T08:21:30.868Z,10.24
2023-04-03T08:22:32.461Z,10.27
2023-04-03T08:23:34.021Z,10.41
2023-04-03T08:24:36.474Z,10.54
2023-04-03T08:25:43.319Z,10.57
2023-04-03T08:26:44.862Z,10.65
2023-04-03T08:27:46.513Z,10.76
2023-04-03T08:28:49.349Z,10.81
2023-04-03T08:29:51.418Z,10.78
2023-04-03T08:30:53.038Z,10.63
2023-04-03T08:31:54.879Z,10.63
2023-04-03T08:32:56.499Z,10.58
2023-04-03T08:33:59.084Z,10.39
2023-04-03T08:35:00.639Z,10.25
2023-04-03T08:36:02.734Z,10.41
2023-04-03T08:37:04.260Z,10.57
2023-04-03T08:38:05.846Z,10.73
2023-04-03T08:39:07.883Z,10.80
2023-04-03T08:40:15.736Z,10.91
2023-04-03T08:41:22.812Z,11.01
2023-04-03T08:43:05.197Z,11.07
2023-04-03T08:44:18.983Z,11.23
2023-04-03T08:45:34.501Z,11.31
2023-04-03T08:46:53.804Z,11.43
2023-04-03T08:48:15.559Z,11.54
2023-04-03T08:49:32.518Z,11.50
2023-04-03T08:50:41.792Z,11.34
2023-04-03T08:51:49.526Z,11.33
2023-04-03T08:52:54.931Z,11.15
2023-04-03T08:54:09.093Z,11.00
2023-04-03T08:55:32.972Z,10.69
2023-04-03T08:56:36.364Z,10.47
2023-04-03T08:57:43.689Z,10.43
2023-04-03T08:59:01.741Z,10.62
2023-04-03T09:00:19.279Z,10.78
2023-04-03T09:01:41.966Z,10.91
2023-04-03T09:02:52.639Z,11.01
2023-04-03T09:03:54.601Z,11.11
2023-04-03T09:04:56.686Z,11.18
2023-04-03T09:06:21.466Z,11.23
2023-04-03T09:07:34.077Z,11.37
2023-04-03T09:09:16.483Z,11.33
2023-04-03T09:10:28.322Z,11.00
2023-04-03T09:11:42.438Z,10.93
2023-04-03T09:12:50.935Z,10.88
2023-04-03T09:14:02.657Z,11.00
2023-04-03T09:15:14.361Z,11.12
2023-04-03T09:16:47.981Z,11.12
2023-04-03T09:18:08.390Z,10.90
2023-04-03T09:19:34.041Z,10.80
2023-04-03T09:21:09.179Z,10.76
2023-04-03T09:22:19.646Z,10.77
2023-04-03T09:23:30.576Z,10.84
2023-04-03T09:24:34.360Z,10.95
2023-04-03T09:25:38.452Z,10.97
2023-04-03T09:26:49.710Z,10.88
2023-04-03T09:27:52.504Z,10.73
2023-04-03T09:28:56.987Z,10.63
2023-04-03T09:29:59.104Z,10.65
2023-04-03T09:31:01.916Z,10.65
2023-04-03T09:32:26.291Z,10.57
2023-04-03T09:33:30.335Z,10.49
2023-04-03T09:34:36.210Z,10.47
2023-04-03T09:35:47.248Z,10.45
2023-04-03T09:36:49.936Z,10.46
2023-04-03T09:38:00.851Z,10.40
2023-04-03T09:39:06.918Z,10.34
2023-04-03T09:40:27.003Z,10.27
2023-04-03T09:41:29.382Z,10.21
2023-04-03T09:42:33.016Z,10.14
2023-04-03T09:43:39.631Z,10.12
2023-04-03T09:44:41.189Z,10.10
2023-04-03T09:45:43.101Z,10.04
2023-04-03T09:46:44.860Z,10.04
2023-04-03T09:47:46.729Z,10.05
2023-04-03T09:49:09.028Z,10.00
2023-04-03T09:50:14.962Z,10.00
2023-04-03T09:51:16.867Z,10.05
2023-04-03T09:52:25.485Z,10.13
2023-04-03T09:53:34.610Z,10.25
2023-04-03T09:54:41.115Z,10.36
2023-04-03T09:55:45.439Z,10.49
2023-04-03T09:56:51.730Z,10.45
2023-04-03T09:57:55.076Z,10.41
2023-04-03T09:58:59.706Z,10.39
2023-04-03T10:00:06.039Z,10.39
2023-04-03T10:01:24.059Z,10.47
2023-04-03T10:02:41.057Z,10.50
2023-04-03T10:03:47.637Z,10.61
2023-04-03T10:04:58.718Z,10.73
2023-04-03T10:06:25.039Z,10.92
2023-04-03T10:07:33.268Z,11.04
2023-04-03T10:08:36.147Z,11.14
2023-04-03T10:09:40.446Z,11.22
2023-04-03T10:10:49.738Z,11.34
2023-04-03T10:12:13.182Z,11.46
2023-04-03T10:13:22.328Z,11.50
2023-04-03T10:14:24.061Z,11.58
2023-04-03T10:15:29.551Z,11.66
2023-04-03T10:16:34.900Z,11.69
2023-04-03T10:17:48.948Z,11.77
2023-04-03T10:19:05.954Z,11.80
2023-04-03T10:20:34.560Z,11.83
2023-04-03T10:21:51.832Z,11.66
2023-04-03T10:23:18.929Z,11.76
2023-04-03T10:24:30.414Z,11.88
2023-04-03T10:25:59.815Z,11.99
2023-04-03T10:27:19.708Z,12.11
2023-04-03T10:28:24.851Z,12.16
2023-04-03T10:29:29.640Z,12.08
2023-04-03T10:30:52.950Z,12.10
2023-04-03T10:32:03.168Z,12.14
2023-04-03T10:33:26.537Z,12.22
2023-04-03T10:34:34.551Z,12.30
2023-04-03T10:36:10.164Z,12.38
2023-04-03T10:37:51.892Z,12.50
2023-04-03T10:39:29.459Z,12.56
2023-04-03T10:40:52.985Z,12.64
2023-04-03T10:42:00.719Z,12.67
2023-04-03T10:43:22.005Z,12.73
2023-04-03T10:44:39.138Z,12.83
2023-04-03T10:45:52.864Z,12.84
2023-04-03T10:47:05.055Z,12.84
2023-04-03T10:48:24.838Z,12.94
2023-04-03T10:49:57.055Z,13.04
2023-04-03T10:51:34.730Z,13.05
2023-04-03T10:52:58.303Z,13.00
2023-04-03T10:54:25.408Z,12.95
2023-04-03T10:55:27.310Z,12.89
2023-04-03T10:56:37.274Z,12.74
2023-04-03T10:57:39.097Z,12.72
2023-04-03T10:58:44.861Z,12.79
2023-04-03T10:59:55.111Z,12.80
2023-04-03T11:01:02.456Z,12.86
2023-04-03T11:02:08.580Z,12.87
2023-04-03T11:03:35.569Z,12.76
2023-04-03T11:04:40.628Z,12.77
2023-04-03T11:05:45.729Z,12.78
2023-04-03T11:06:58.842Z,12.84
2023-04-03T11:08:05.719Z,12.89
2023-04-03T11:09:32.335Z,12.93
2023-04-03T11:10:43.431Z,12.99
2023-04-03T11:11:45.658Z,13.03
2023-04-03T11:12:52.858Z,13.04
2023-04-03T11:14:06.592Z,13.09
2023-04-03T11:15:23.287Z,13.12
2023-04-03T11:16:28.270Z,13.14
2023-04-03T11:17:47.502Z,13.21
2023-04-03T11:19:01.048Z,13.23
2023-04-03T11:20:11.849Z,13.26
2023-04-03T11:21:44.201Z,13.29
2023-04-03T11:23:05.023Z,13.32
2023-04-03T11:24:31.199Z,13.33
2023-04-03T11:25:39.114Z,13.33
2023-04-03T11:26:43.369Z,13.30
2023-04-03T11:27:52.821Z,13.22
2023-04-03T11:29:00.648Z,13.07
2023-04-03T11:30:06.918Z,12.92
2023-04-03T11:31:14.183Z,12.83
2023-04-03T11:32:56.790Z,12.73
2023-04-03T11:34:09.184Z,12.61
2023-04-03T11:35:11.971Z,12.62
2023-04-03T11:36:30.337Z,12.66
2023-04-03T11:37:45.351Z,12.70
2023-04-03T11:38:50.166Z,12.70
2023-04-03T11:39:59.471Z,12.66
2023-04-03T11:41:01.493Z,12.73
2023-04-03T11:42:39.030Z,12.62
2023-04-03T11:44:25.960Z,12.59
2023-04-03T11:45:51.994Z,12.65
2023-04-03T11:46:58.150Z,12.63
2023-04-03T11:48:16.682Z,12.61
2023-04-03T11:50:00.865Z,12.52
2023-04-03T11:51:23.520Z,12.50
2023-04-03T11:52:43.744Z,12.51
2023-04-03T11:53:46.692Z,12.48
2023-04-03T11:54:49.542Z,12.48
2023-04-03T11:55:51.134Z,12.49
2023-04-03T11:56:52.841Z,12.49
2023-04-03T11:58:02.886Z,12.46
2023-04-03T11:59:14.494Z,12.40
2023-04-03T12:00:51.983Z,12.27
2023-04-03T12:01:53.719Z,12.14
2023-04-03T12:02:55.781Z,12.08
2023-04-03T12:04:05.975Z,12.08
2023-04-03T12:05:29.670Z,12.18
2023-04-03T12:06:34.041Z,12.20
2023-04-03T12:07:35.717Z,12.26
2023-04-03T12:08:40.322Z,12.29
2023-04-03T12:09:42.087Z,12.27
2023-04-03T12:10:43.713Z,12.23
2023-04-03T12:11:45.351Z,12.25
2023-04-03T12:12:58.594Z,12.27
2023-04-03T12:14:00.269Z,12.26
2023-04-03T12:15:44.093Z,12.29
2023-04-03T12:16:48.544Z,12.43
2023-04-03T12:17:51.751Z,12.46
2023-04-03T12:18:53.409Z,12.51
2023-04-03T12:19:55.144Z,12.59
2023-04-03T12:20:57.933Z,12.66
2023-04-03T12:22:00.293Z,12.75
2023-04-03T12:23:29.767Z,12.76
2023-04-03T12:24:33.608Z,12.74
2023-04-03T12:25:50.926Z,12.76
2023-04-03T12:26:59.272Z,12.74
2023-04-03T12:28:00.963Z,12.76
2023-04-03T12:29:17.020Z,12.80
2023-04-03T12:30:29.238Z,12.83
2023-04-03T12:31:42.518Z,12.75
2023-04-03T12:33:12.656Z,12.53
2023-04-03T12:34:36.433Z,12.49
2023-04-03T12:35:50.042Z,12.54
2023-04-03T12:37:01.684Z,12.61
2023-04-03T12:38:21.627Z,12.69
2023-04-03T12:39:43.882Z,12.74
2023-04-03T12:41:11.578Z,12.80
2023-04-03T12:42:25.995Z,12.86
2023-04-03T12:43:55.409Z,12.90
2023-04-03T12:45:11.642Z,12.75
2023-04-03T12:46:18.345Z,12.33
2023-04-03T12:47:28.405Z,12.05
2023-04-03T12:48:32.448Z,11.82
2023-04-03T12:49:39.287Z,11.70
2023-04-03T12:50:43.991Z,11.64
2023-04-03T12:51:48.040Z,11.76
2023-04-03T12:52:56.276Z,11.85
2023-04-03T12:54:03.693Z,11.93
2023-04-03T12:55:18.279Z,12.01
2023-04-03T12:56:32.940Z,12.03
2023-04-03T12:57:35.455Z,11.97
2023-04-03T12:58:37.090Z,11.94
2023-04-03T12:59:39.291Z,11.80
2023-04-03T13:00:41.018Z,11.68
2023-04-03T13:01:43.026Z,11.57
2023-04-03T13:02:47.547Z,11.53
2023-04-03T13:03:52.679Z,11.57
2023-04-03T13:04:58.903Z,11.73
2023-04-03T13:06:05.271Z,11.83
2023-04-03T13:07:07.017Z,11.88
2023-04-03T13:08:13.702Z,11.89
2023-04-03T13:09:27.421Z,11.80
2023-04-03T13:10:29.034Z,11.60
2023-04-03T13:11:41.378Z,11.62
2023-04-03T13:13:11.030Z,11.59
2023-04-03T13:14:38.856Z,11.48
2023-04-03T13:15:47.463Z,11.47
2023-04-03T13:17:07.929Z,11.42
2023-04-03T13:18:30.206Z,11.32
2023-04-03T13:19:32.435Z,11.35
2023-04-03T13:20:37.518Z,11.42
2023-04-03T13:21:39.402Z,11.55
2023-04-03T13:22:50.618Z,11.67
2023-04-03T13:24:07.148Z,11.66
2023-04-03T13:25:16.434Z,11.61
2023-04-03T13:26:21.111Z,11.69
2023-04-03T13:27:23.409Z,11.81
2023-04-03T13:28:25.954Z,11.81
2023-04-03T13:29:34.525Z,11.77
2023-04-03T13:30:40.141Z,11.81
2023-04-03T13:31:42.025Z,11.94
2023-04-03T13:32:45.101Z,12.05
2023-04-03T13:34:02.277Z,12.15
2023-04-03T13:35:17.621Z,12.25
2023-04-03T13:36:23.724Z,12.29
2023-04-03T13:37:34.061Z,12.37
2023-04-03T13:38:37.446Z,12.45
2023-04-03T13:39:40.324Z,12.51
2023-04-03T13:40:50.054Z,12.56
2023-04-03T13:41:54.926Z,12.60
2023-04-03T13:43:06.505Z,12.61
2023-04-03T13:44:23.179Z,12.65
2023-04-03T13:45:29.599Z,12.66
2023-04-03T13:46:32.179Z,12.70
2023-04-03T13:47:40.732Z,12.75
2023-04-03T13:48:52.142Z,12.75
2023-04-03T13:50:16.939Z,12.76
2023-04-03T13:51:25.663Z,12.73
2023-04-03T13:52:51.271Z,12.76
2023-04-03T13:54:02.101Z,12.77
2023-04-03T13:55:25.798Z,12.82
2023-04-03T13:56:38.351Z,12.80
2023-04-03T13:58:00.324Z,12.75
2023-04-03T13:59:22.258Z,12.66
2023-04-03T14:00:29.892Z,12.52
2023-04-03T14:02:07.791Z,12.52
2023-04-03T14:03:23.578Z,12.52
2023-04-03T14:04:29.189Z,12.51
2023-04-03T14:05:31.414Z,12.51
2023-04-03T14:06:33.079Z,12.52
2023-04-03T14:07:35.355Z,12.54
2023-04-03T14:08:42.891Z,12.56
2023-04-03T14:09:47.199Z,12.61
2023-04-03T14:10:50.848Z,12.60
2023-04-03T14:11:56.791Z,12.60
2023-04-03T14:12:58.486Z,12.60
2023-04-03T14:14:05.724Z,12.60
2023-04-03T14:15:29.192Z,12.66
2023-04-03T14:16:33.331Z,12.63
2023-04-03T14:17:35.040Z,12.60
2023-04-03T14:18:38.310Z,12.63
2023-04-03T14:19:39.951Z,12.65
2023-04-03T14:20:41.571Z,12.72
2023-04-03T14:21:43.162Z,12.72
2023-04-03T14:22:45.245Z,12.60
2023-04-03T14:23:47.230Z,12.51
2023-04-03T14:24:49.289Z,12.48
2023-04-03T14:25:50.899Z,12.50
2023-04-03T14:26:54.324Z,12.45